Rio Brilhante, Brazil
Current Conditions -  °F | °C
As of 2:00 PM on Thursday 30 Oct 2014 (Local Time) from SBCG Reporting Station
Broken Clouds Broken Clouds  
Wind Chill: 88°   Ceiling: 4000
Heat Index: 90°   Visibility: 6mi
Dew Point: 66°   Wind: 15mph
Humidity: 49%   Direction: 310°NW
Pressure: 29.8"   Gusts: NA
Location:  21.8°S, 54.55°W
Report Text: SBCG 301700Z 31013KT 9999 BKN040 FEW050TCU 31/19 Q1009
Loading
Personal Weather Stations






























Interactive Weather Map
Tropical Storm Tracking
New forecast layout! Learn more

10-Day Weather Forecast

Advertisements
Track Severe Weather on mobile